createdAt,value
2023-03-02T00:01:29.703Z,19.00
2023-03-02T00:08:36.360Z,21.70
2023-03-02T00:15:40.164Z,25.00
2023-03-02T00:22:43.770Z,23.93
2023-03-02T00:29:47.524Z,21.53
2023-03-02T00:36:50.663Z,22.60
2023-03-02T00:43:53.836Z,20.00
2023-03-02T00:50:57.030Z,26.73
2023-03-02T00:58:00.474Z,20.87
2023-03-02T01:05:03.610Z,23.97
2023-03-02T01:12:10.315Z,20.30
2023-03-02T01:19:13.712Z,19.20
2023-03-02T01:26:16.963Z,18.00
2023-03-02T01:33:20.156Z,17.10
2023-03-02T01:48:07.577Z,21.00
2023-03-02T01:55:13.862Z,18.50
2023-03-02T02:02:23.900Z,16.47
2023-03-02T02:09:27.166Z,15.47
2023-03-02T02:16:31.378Z,16.13
2023-03-02T02:23:53.298Z,17.03
2023-03-02T02:31:07.794Z,16.10
2023-03-02T02:38:18.093Z,15.20
2023-03-02T02:45:22.487Z,15.13
2023-03-02T02:52:32.154Z,11.93
2023-03-02T02:59:50.851Z,15.73
2023-03-02T03:06:54.571Z,17.97
2023-03-02T03:13:59.617Z,15.97
2023-03-02T03:21:18.400Z,19.13
2023-03-02T03:28:21.917Z,15.20
2023-03-02T03:35:26.022Z,15.53
2023-03-02T03:42:29.490Z,14.97
2023-03-02T03:49:32.993Z,18.43
2023-03-02T03:56:36.252Z,17.87
2023-03-02T04:03:51.083Z,16.20
2023-03-02T04:10:54.213Z,16.10
2023-03-02T04:17:57.473Z,19.50
2023-03-02T04:25:00.724Z,19.17
2023-03-02T04:32:04.062Z,26.87
2023-03-02T04:39:07.338Z,19.70
2023-03-02T04:46:11.109Z,17.70
2023-03-02T04:53:19.161Z,22.40
2023-03-02T05:00:25.123Z,20.50
2023-03-02T05:07:28.760Z,20.43
2023-03-02T05:14:32.088Z,26.07
2023-03-02T05:21:35.388Z,21.43
2023-03-02T05:28:39.179Z,24.87
2023-03-02T05:35:42.434Z,23.00
2023-03-02T05:42:45.615Z,24.87
2023-03-02T05:49:48.913Z,24.40
2023-03-02T05:56:52.494Z,29.47
2023-03-02T06:03:55.716Z,27.97
2023-03-02T06:10:58.934Z,27.40
2023-03-02T06:18:02.243Z,28.03
2023-03-02T06:25:05.385Z,32.30
2023-03-02T06:32:10.544Z,31.23
2023-03-02T06:39:16.945Z,33.83
2023-03-02T06:46:20.923Z,30.47
2023-03-02T06:53:24.128Z,31.87
2023-03-02T07:00:28.306Z,33.23
2023-03-02T07:07:31.611Z,33.50
2023-03-02T07:14:34.819Z,36.17
2023-03-02T07:21:38.015Z,37.87
2023-03-02T07:28:43.264Z,28.50
2023-03-02T07:35:46.481Z,33.73
2023-03-02T07:42:49.806Z,36.00
2023-03-02T07:49:53.309Z,32.40
2023-03-02T07:56:56.911Z,36.93
2023-03-02T08:04:00.129Z,31.33
2023-03-02T08:11:05.210Z,32.00
2023-03-02T08:18:11.103Z,33.80
2023-03-02T08:25:15.205Z,31.10
2023-03-02T08:32:18.680Z,35.37
2023-03-02T08:39:23.474Z,32.73
2023-03-02T08:46:27.490Z,36.20
2023-03-02T08:53:30.771Z,33.77
2023-03-02T09:00:33.953Z,29.37
2023-03-02T09:07:39.715Z,30.13
2023-03-02T09:14:43.203Z,29.90
2023-03-02T09:21:46.520Z,35.97
2023-03-02T09:28:50.062Z,33.70
2023-03-02T09:35:53.425Z,35.57
2023-03-02T09:43:25.630Z,33.20
2023-03-02T09:51:28.930Z,34.73
2023-03-02T09:58:37.051Z,32.67
2023-03-02T10:05:50.047Z,33.17
2023-03-02T10:13:31.724Z,29.93
2023-03-02T10:20:36.873Z,28.53
2023-03-02T10:27:47.742Z,40.10
2023-03-02T10:34:52.182Z,24.97
2023-03-02T10:42:03.417Z,24.30
2023-03-02T10:49:09.655Z,24.90
2023-03-02T10:56:19.049Z,32.50
2023-03-02T11:03:27.754Z,22.13
2023-03-02T11:10:31.954Z,26.40
2023-03-02T11:17:55.052Z,28.30
2023-03-02T11:25:15.901Z,29.60
2023-03-02T11:32:30.047Z,21.90
2023-03-02T11:39:55.838Z,20.13
2023-03-02T11:47:07.762Z,24.10
2023-03-02T11:54:22.519Z,19.63
2023-03-02T12:01:32.374Z,18.17
2023-03-02T12:08:42.759Z,22.63
2023-03-02T12:15:48.520Z,24.13
2023-03-02T12:23:08.351Z,29.00
2023-03-02T12:30:27.424Z,19.87
2023-03-02T12:37:42.968Z,17.87
2023-03-02T12:45:07.391Z,19.00
2023-03-02T12:52:28.386Z,16.33
2023-03-02T12:59:32.209Z,16.60
2023-03-02T13:06:37.019Z,17.23
2023-03-02T13:13:48.594Z,18.63
2023-03-02T13:20:53.299Z,17.50
2023-03-02T13:28:10.766Z,20.13
2023-03-02T13:35:29.461Z,13.77
2023-03-02T13:42:40.757Z,10.57
2023-03-02T13:49:44.039Z,15.00
2023-03-02T13:56:47.631Z,17.40
2023-03-02T14:03:51.063Z,13.53
2023-03-02T14:10:54.314Z,13.57
2023-03-02T14:17:57.607Z,12.03
2023-03-02T14:25:00.794Z,15.77
2023-03-02T14:32:04.663Z,12.53
2023-03-02T14:39:09.293Z,11.17
2023-03-02T14:46:14.516Z,11.50
2023-03-02T14:53:26.228Z,12.60
2023-03-02T15:00:31.908Z,13.00
2023-03-02T15:07:40.793Z,13.40
2023-03-02T15:14:44.020Z,9.67
2023-03-02T15:21:47.211Z,13.50
2023-03-02T15:29:01.393Z,17.10
2023-03-02T15:36:07.477Z,9.87
2023-03-02T15:43:13.660Z,9.60
2023-03-02T15:50:17.195Z,11.47
2023-03-02T15:57:20.762Z,8.30
2023-03-02T16:04:26.260Z,8.30
2023-03-02T16:11:29.672Z,7.23
2023-03-02T16:18:32.952Z,9.53
2023-03-02T16:25:36.209Z,9.57
2023-03-02T16:32:40.470Z,6.87
2023-03-02T16:39:43.915Z,7.33
2023-03-02T16:46:47.186Z,7.83
2023-03-02T16:53:50.516Z,7.67
2023-03-02T17:00:53.947Z,7.43
2023-03-02T17:07:58.810Z,9.50
2023-03-02T17:15:02.076Z,11.13
2023-03-02T17:22:07.626Z,8.90
2023-03-02T17:29:11.424Z,6.63
2023-03-02T17:36:16.191Z,7.83
2023-03-02T17:43:19.549Z,7.20
2023-03-02T17:50:23.842Z,9.20
2023-03-02T17:57:29.244Z,13.70
2023-03-02T18:04:32.568Z,9.83
2023-03-02T18:11:35.781Z,6.97
2023-03-02T18:18:39.071Z,8.73
2023-03-02T18:25:42.337Z,7.40
2023-03-02T18:32:45.532Z,10.00
2023-03-02T18:39:48.933Z,10.60
2023-03-02T18:46:52.141Z,9.67
2023-03-02T18:53:56.150Z,9.93
2023-03-02T19:00:59.381Z,10.53
2023-03-02T19:08:04.647Z,9.80
2023-03-02T19:15:10.361Z,8.90
2023-03-02T19:22:17.930Z,11.40
2023-03-02T19:29:22.846Z,9.27
2023-03-02T19:36:28.466Z,10.97
2023-03-02T19:43:31.744Z,10.13
2023-03-02T19:50:35.058Z,13.63
2023-03-02T19:57:39.607Z,10.70
2023-03-02T20:04:45.057Z,10.87
2023-03-02T20:11:50.304Z,14.93
2023-03-02T20:18:53.487Z,14.03
2023-03-02T20:25:59.743Z,13.27
2023-03-02T20:33:07.622Z,11.93
2023-03-02T20:40:23.284Z,14.30
2023-03-02T20:47:33.963Z,12.63
2023-03-02T20:54:37.222Z,10.90
2023-03-02T21:01:41.661Z,12.83
2023-03-02T21:08:45.435Z,17.20
2023-03-02T21:15:49.868Z,27.80
2023-03-02T21:22:53.151Z,15.87
2023-03-02T21:29:56.646Z,16.80
2023-03-02T21:37:00.019Z,17.50
2023-03-02T21:44:05.096Z,21.50
2023-03-02T21:51:08.891Z,18.17
2023-03-02T21:58:17.596Z,19.10
2023-03-02T22:05:20.832Z,15.60
2023-03-02T22:12:33.098Z,14.70
2023-03-02T22:19:36.307Z,15.73
2023-03-02T22:26:41.303Z,15.30
2023-03-02T22:33:48.737Z,15.97
2023-03-02T22:40:53.357Z,16.10
2023-03-02T22:48:18.768Z,17.83
2023-03-02T22:55:27.300Z,16.80
2023-03-02T23:02:47.203Z,16.33
2023-03-02T23:09:50.665Z,18.67
2023-03-02T23:16:58.037Z,14.67
2023-03-02T23:24:02.502Z,18.80
2023-03-02T23:31:06.612Z,18.60
2023-03-02T23:38:10.043Z,14.03
2023-03-02T23:45:13.220Z,17.47
2023-03-02T23:52:16.536Z,17.03
2023-03-02T23:59:20.140Z,17.17
